Time;durP1;ratioP1;P1;durP2;ratioP2;P2;SDS_P1;SDS_P2;PMS_P1;PMS_P2;Temp;Humidity;BMP_temperature;BMP_pressure;BME280_temperature;BME280_humidity;BME280_pressure;Samples;Min_cycle;Max_cycle;Signal;HPM_P1;HPM_P2
2021/07/13 00:00:29;;;;;;;66.88;56.45;;;18.80;99.90;;;;;;4868466;29;20115;-79
2021/07/13 00:02:56;;;;;;;62.70;54.40;;;18.80;99.90;;;;;;4896042;29;20043;-80
2021/07/13 00:05:24;;;;;;;87.53;66.05;;;18.80;99.90;;;;;;4865661;29;20047;-80
2021/07/13 00:07:51;;;;;;;80.20;63.10;;;18.80;99.90;;;;;;4865644;29;20182;-80
2021/07/13 00:10:21;;;;;;;61.63;51.55;;;18.80;99.90;;;;;;4850559;29;20068;-80
2021/07/13 00:12:47;;;;;;;;;;;18.80;99.90;;;;;;4866749;29;21334;-79
2021/07/13 00:15:18;;;;;;;86.68;66.47;;;18.80;99.90;;;;;;4877969;29;19931;-81
2021/07/13 00:17:45;;;;;;;90.93;70.18;;;18.80;99.90;;;;;;4880895;29;20048;-80
2021/07/13 00:20:12;;;;;;;95.53;70.63;;;18.90;99.90;;;;;;4881811;29;20055;-80
2021/07/13 00:22:40;;;;;;;107.38;75.55;;;18.90;99.90;;;;;;4879778;29;20055;-80
2021/07/13 00:25:07;;;;;;;64.90;55.83;;;18.80;99.90;;;;;;4866086;29;20500;-80
2021/07/13 00:27:33;;;;;;;111.53;77.47;;;18.80;99.90;;;;;;4880076;29;20107;-80
2021/07/13 00:30:05;;;;;;;121.55;79.03;;;18.80;99.90;;;;;;4880621;29;20099;-80
2021/07/13 00:32:31;;;;;;;94.88;68.63;;;18.80;99.90;;;;;;4861486;29;20166;-81
2021/07/13 00:34:57;;;;;;;102.32;71.90;;;18.80;99.90;;;;;;4858408;29;21045;-81
2021/07/13 00:37:23;;;;;;;113.00;73.93;;;18.80;99.90;;;;;;4846991;29;20052;-81
2021/07/13 00:39:49;;;;;;;98.65;70.55;;;18.80;99.90;;;;;;4863345;29;20122;-80
2021/07/13 00:42:17;;;;;;;140.68;81.53;;;18.80;99.90;;;;;;4847637;29;20084;-80
2021/07/13 00:44:45;;;;;;;150.75;84.10;;;18.70;99.90;;;;;;4865400;29;20055;-80
2021/07/13 00:47:12;;;;;;;152.43;84.40;;;18.70;99.90;;;;;;4863586;29;20127;-81
2021/07/13 00:49:39;;;;;;;158.48;86.95;;;18.70;99.90;;;;;;4895309;29;20055;-79
2021/07/13 00:52:12;;;;;;;215.48;86.82;;;18.70;99.90;;;;;;4863577;29;20033;-79
2021/07/13 00:54:41;;;;;;;137.75;83.63;;;18.60;99.90;;;;;;4862674;29;20529;-79
2021/07/13 00:57:09;;;;;;;156.02;85.85;;;18.60;99.90;;;;;;4844530;29;20048;-79
2021/07/13 00:59:36;;;;;;;174.48;86.28;;;18.60;99.90;;;;;;4894655;29;20111;-79
2021/07/13 01:02:07;;;;;;;165.45;86.50;;;18.60;99.90;;;;;;4861176;29;20160;-80
2021/07/13 01:04:42;;;;;;;186.80;95.80;;;18.60;99.90;;;;;;4862987;29;20427;-80
2021/07/13 01:07:13;;;;;;;184.98;96.05;;;18.70;99.90;;;;;;4882174;29;20636;-81
2021/07/13 01:10:04;;;;;;;120.13;80.20;;;18.60;99.90;;;;;;4878792;29;20071;-80
2021/07/13 01:12:46;;;;;;;153.68;83.53;;;18.50;99.90;;;;;;4895173;29;20048;-81
2021/07/13 01:15:14;;;;;;;161.05;83.32;;;18.50;99.90;;;;;;4862937;29;20363;-80
2021/07/13 01:17:58;;;;;;;76.80;61.35;;;18.50;99.90;;;;;;4851121;29;20534;-80
2021/07/13 01:20:49;;;;;;;109.88;70.45;;;18.50;99.90;;;;;;4878244;29;20518;-80
2021/07/13 01:24:03;;;;;;;203.07;92.47;;;18.50;99.90;;;;;;4881733;29;20451;-81
2021/07/13 01:26:49;;;;;;;124.13;82.20;;;18.60;99.90;;;;;;4835866;29;20055;-80
2021/07/13 01:29:18;;;;;;;212.45;96.82;;;18.60;99.90;;;;;;4897984;29;20428;-80
2021/07/13 01:31:47;;;;;;;175.73;91.38;;;18.50;99.90;;;;;;4882227;29;20774;-80
2021/07/13 01:34:23;;;;;;;208.00;98.73;;;18.50;99.90;;;;;;4881257;29;20083;-83
2021/07/13 01:37:00;;;;;;;240.77;99.07;;;18.50;99.90;;;;;;4899815;29;20044;-81
2021/07/13 01:39:28;;;;;;;193.55;88.07;;;18.50;99.90;;;;;;4898825;29;20503;-81
2021/07/13 01:41:57;;;;;;;197.93;94.47;;;18.40;99.90;;;;;;4867825;29;20073;-80
2021/07/13 01:44:24;;;;;;;186.77;90.97;;;18.40;99.90;;;;;;4887344;29;20115;-80
2021/07/13 01:46:51;;;;;;;134.40;81.18;;;18.50;99.90;;;;;;4871009;29;20040;-80
2021/07/13 01:49:21;;;;;;;164.10;90.05;;;18.50;99.90;;;;;;4857112;29;20040;-81
2021/07/13 01:51:48;;;;;;;187.80;91.10;;;18.50;99.90;;;;;;4903055;29;20040;-80
2021/07/13 01:54:16;;;;;;;179.52;94.25;;;18.50;99.90;;;;;;4901371;29;20048;-80
2021/07/13 01:56:44;;;;;;;183.18;93.72;;;18.50;99.90;;;;;;4884736;29;20047;-82
2021/07/13 01:59:15;;;;;;;202.77;91.40;;;18.50;99.90;;;;;;4889327;29;20134;-80
2021/07/13 02:01:43;;;;;;;132.80;80.15;;;18.50;99.90;;;;;;4884039;29;20458;-81
2021/07/13 02:04:10;;;;;;;129.90;79.05;;;18.50;99.90;;;;;;4852914;29;20795;-79
2021/07/13 02:06:37;;;;;;;188.40;91.82;;;18.50;99.90;;;;;;4854211;29;20048;-79
2021/07/13 02:09:09;;;;;;;87.55;67.03;;;18.50;99.90;;;;;;4886555;29;20491;-79
2021/07/13 02:11:36;;;;;;;112.10;75.88;;;18.50;99.90;;;;;;4885122;29;20058;-80
2021/07/13 02:14:02;;;;;;;166.07;90.90;;;18.50;99.90;;;;;;4887175;29;20682;-82
2021/07/13 02:16:31;;;;;;;162.00;86.95;;;18.50;99.90;;;;;;4867589;29;20045;-83
2021/07/13 02:18:58;;;;;;;132.80;82.93;;;18.60;99.90;;;;;;4887494;29;20374;-79
2021/07/13 02:21:24;;;;;;;172.57;87.00;;;18.70;99.90;;;;;;4857989;29;20106;-80
2021/07/13 02:23:50;;;;;;;221.45;99.40;;;18.60;99.90;;;;;;4869084;29;20103;-82
2021/07/13 02:26:21;;;;;;;196.98;94.47;;;18.60;99.90;;;;;;4858432;29;20055;-81
2021/07/13 02:28:52;;;;;;;215.05;96.63;;;18.60;99.90;;;;;;4888178;29;20048;-80
2021/07/13 02:31:25;;;;;;;235.27;100.38;;;18.50;99.90;;;;;;4906325;29;20048;-79
2021/07/13 02:34:09;;;;;;;246.07;99.07;;;18.60;99.90;;;;;;4886896;29;20707;-81
2021/07/13 02:36:42;;;;;;;233.35;97.38;;;18.50;99.90;;;;;;4902439;29;20115;-83
2021/07/13 02:39:09;;;;;;;126.65;79.75;;;18.50;99.90;;;;;;4885220;29;20082;-79
2021/07/13 02:41:38;;;;;;;142.50;88.40;;;18.50;99.90;;;;;;4874272;29;20187;-81
2021/07/13 02:44:05;;;;;;;205.27;96.68;;;18.50;99.90;;;;;;4886772;29;20379;-82
2021/07/13 02:46:33;;;;;;;196.23;91.55;;;18.50;99.90;;;;;;4861580;29;20055;-81
2021/07/13 02:49:00;;;;;;;192.13;92.20;;;18.50;99.90;;;;;;4876967;29;20083;-81
2021/07/13 02:51:28;;;;;;;117.22;74.85;;;18.50;99.90;;;;;;4899773;29;20040;-79
2021/07/13 02:53:56;;;;;;;171.68;89.15;;;18.40;99.90;;;;;;4904997;29;20151;-81
2021/07/13 02:56:24;;;;;;;117.97;76.32;;;18.50;99.90;;;;;;4859245;29;20047;-82
2021/07/13 02:58:54;;;;;;;158.07;85.43;;;18.50;99.90;;;;;;4892056;29;20051;-80
2021/07/13 03:01:22;;;;;;;119.28;77.65;;;18.50;99.90;;;;;;4902951;29;20046;-79
2021/07/13 03:03:50;;;;;;;99.80;68.07;;;18.50;99.90;;;;;;4908789;29;21032;-80
2021/07/13 03:06:17;;;;;;;101.65;68.38;;;18.50;99.90;;;;;;4874211;29;20417;-83
2021/07/13 03:08:43;;;;;;;105.70;71.60;;;18.50;99.90;;;;;;4869446;29;20047;-78
2021/07/13 03:11:09;;;;;;;144.98;80.13;;;18.50;99.90;;;;;;4876794;29;20119;-80
2021/07/13 03:13:37;;;;;;;148.38;82.80;;;18.50;99.90;;;;;;4873266;29;21323;-81
2021/07/13 03:16:03;;;;;;;140.02;81.40;;;18.50;99.90;;;;;;4861641;29;20589;-80
2021/07/13 03:18:29;;;;;;;125.88;76.10;;;18.50;99.90;;;;;;4887446;29;20422;-80
2021/07/13 03:20:59;;;;;;;93.38;64.63;;;18.50;99.90;;;;;;4873240;29;20048;-80
2021/07/13 03:23:27;;;;;;;99.57;66.55;;;18.40;99.90;;;;;;4905809;29;20066;-81
2021/07/13 03:25:55;;;;;;;136.73;81.40;;;18.40;99.90;;;;;;4887362;29;20036;-83
2021/07/13 03:28:23;;;;;;;107.22;71.30;;;18.40;99.90;;;;;;4874780;29;20048;-80
2021/07/13 03:30:52;;;;;;;143.75;81.93;;;18.50;99.90;;;;;;4893205;29;20048;-80
2021/07/13 03:33:19;;;;;;;156.80;87.78;;;18.40;99.90;;;;;;4877838;29;20048;-81
2021/07/13 03:35:45;;;;;;;151.27;83.47;;;18.40;99.90;;;;;;4860409;29;20051;-82
2021/07/13 03:38:11;;;;;;;154.52;85.88;;;18.40;99.90;;;;;;4859079;29;20048;-80
2021/07/13 03:40:37;;;;;;;162.30;87.25;;;18.40;99.90;;;;;;4889777;29;20051;-81
2021/07/13 03:43:04;;;;;;;166.50;88.03;;;18.40;99.90;;;;;;4887152;29;20043;-79
2021/07/13 03:45:30;;;;;;;158.77;86.90;;;18.40;99.90;;;;;;4886888;29;20047;-82
2021/07/13 03:47:59;;;;;;;113.50;72.63;;;18.40;99.90;;;;;;4872581;29;20059;-79
2021/07/13 03:50:28;;;;;;;109.30;72.80;;;18.40;99.90;;;;;;4890952;29;20065;-80
2021/07/13 03:52:54;;;;;;;99.30;69.43;;;18.40;99.90;;;;;;4903729;29;20044;-80
2021/07/13 03:55:20;;;;;;;96.15;69.47;;;18.30;99.90;;;;;;4870073;29;20076;-81
2021/07/13 03:57:46;;;;;;;93.80;69.97;;;18.40;99.90;;;;;;4871606;29;20115;-80
2021/07/13 04:00:17;;;;;;;123.20;77.57;;;18.50;99.90;;;;;;4870129;29;20351;-81
2021/07/13 04:02:44;;;;;;;123.85;79.35;;;18.50;99.90;;;;;;4886118;29;20060;-82
2021/07/13 04:05:11;;;;;;;127.70;79.45;;;18.50;99.90;;;;;;4888259;29;20060;-81
2021/07/13 04:07:39;;;;;;;122.55;78.05;;;18.50;99.90;;;;;;4890234;29;20550;-82
2021/07/13 04:10:10;;;;;;;133.50;80.03;;;18.60;99.90;;;;;;4875217;29;20483;-78
2021/07/13 04:12:36;;;;;;;120.32;79.32;;;18.60;99.90;;;;;;4890398;29;20048;-81
2021/07/13 04:15:02;;;;;;;133.13;80.10;;;18.60;99.90;;;;;;4872885;29;20036;-79
2021/07/13 04:17:29;;;;;;;123.15;74.47;;;18.60;99.90;;;;;;4883348;29;20078;-79
2021/07/13 04:19:55;;;;;;;141.68;75.55;;;18.60;99.90;;;;;;4905044;29;20139;-78
2021/07/13 04:22:21;;;;;;;119.30;72.28;;;18.60;99.90;;;;;;4858822;29;20043;-79
2021/07/13 04:24:47;;;;;;;125.55;75.88;;;18.50;99.90;;;;;;4890372;29;20566;-79
2021/07/13 04:27:13;;;;;;;137.55;78.78;;;18.50;99.90;;;;;;4853922;29;20411;-80
2021/07/13 04:29:39;;;;;;;96.22;68.30;;;18.60;99.90;;;;;;4885273;29;20060;-79
2021/07/13 04:32:06;;;;;;;105.72;72.88;;;18.60;99.90;;;;;;4871997;29;20531;-79
2021/07/13 04:34:34;;;;;;;126.70;78.35;;;18.60;99.90;;;;;;4856126;29;20040;-81
2021/07/13 04:37:00;;;;;;;132.75;80.00;;;18.70;99.90;;;;;;4873036;29;20040;-84
2021/07/13 04:39:27;;;;;;;143.32;83.68;;;18.80;99.90;;;;;;4883450;29;20143;-80
2021/07/13 04:41:53;;;;;;;112.25;74.32;;;18.80;99.90;;;;;;4873098;29;20565;-80
2021/07/13 04:44:19;;;;;;;133.68;78.55;;;18.70;99.90;;;;;;4886323;29;20577;-80
2021/07/13 04:46:46;;;;;;;134.85;81.32;;;18.70;99.90;;;;;;4889932;29;20091;-81
2021/07/13 04:49:12;;;;;;;135.20;82.63;;;18.70;99.90;;;;;;4871448;29;20138;-80
2021/07/13 04:51:41;;;;;;;147.57;85.30;;;18.80;99.90;;;;;;4888080;29;20044;-84
2021/07/13 04:54:10;;;;;;;146.45;85.35;;;18.80;99.90;;;;;;4874233;29;20043;-81
2021/07/13 04:56:37;;;;;;;136.50;83.45;;;18.80;99.90;;;;;;4873425;29;20429;-82
2021/07/13 04:59:03;;;;;;;131.50;83.07;;;18.80;99.90;;;;;;4873348;29;20047;-84
2021/07/13 05:01:29;;;;;;;122.55;76.45;;;18.80;99.90;;;;;;4903539;29;20431;-80
2021/07/13 05:03:55;;;;;;;112.32;74.80;;;18.80;99.90;;;;;;4873427;29;20741;-79
2021/07/13 05:06:21;;;;;;;125.28;79.47;;;18.80;99.90;;;;;;4868998;29;20048;-82
2021/07/13 05:08:47;;;;;;;121.07;80.53;;;18.90;99.90;;;;;;4869205;29;20388;-83
2021/07/13 05:11:14;;;;;;;113.57;74.50;;;18.90;99.90;;;;;;4870406;29;20168;-82
2021/07/13 05:13:40;;;;;;;103.43;74.13;;;19.00;99.90;;;;;;4885609;29;20058;-83
2021/07/13 05:16:06;;;;;;;113.50;76.40;;;19.10;99.90;;;;;;4871681;29;20043;-81
2021/07/13 05:18:34;;;;;;;107.85;76.07;;;19.10;99.90;;;;;;4885410;29;20044;-83
2021/07/13 05:21:04;;;;;;;106.63;74.18;;;19.10;99.90;;;;;;4887016;29;20063;-81
2021/07/13 05:23:30;;;;;;;100.97;67.43;;;19.10;99.90;;;;;;4850822;29;20068;-81
2021/07/13 05:25:56;;;;;;;86.40;62.85;;;19.20;99.90;;;;;;4905408;29;20495;-81
2021/07/13 05:28:22;;;;;;;86.53;63.83;;;19.20;99.90;;;;;;4871846;29;20044;-80
2021/07/13 05:30:48;;;;;;;91.97;67.00;;;19.30;99.90;;;;;;4871392;29;20119;-81
2021/07/13 05:33:16;;;;;;;98.93;69.05;;;19.30;99.90;;;;;;4905064;29;20388;-81
2021/07/13 05:35:42;;;;;;;102.82;68.95;;;19.40;99.90;;;;;;4886459;29;20146;-84
2021/07/13 05:38:09;;;;;;;91.80;67.55;;;19.40;99.90;;;;;;4871488;29;20590;-82
2021/07/13 05:40:36;;;;;;;85.22;63.58;;;19.40;99.90;;;;;;4886347;29;20036;-81
2021/07/13 05:43:02;;;;;;;83.20;60.55;;;19.40;99.90;;;;;;4870379;29;20040;-83
2021/07/13 05:45:28;;;;;;;84.03;64.05;;;19.40;99.90;;;;;;4872124;29;20052;-85
2021/07/13 05:47:54;;;;;;;80.20;59.83;;;19.40;99.90;;;;;;4841452;29;20051;-80
2021/07/13 05:50:20;;;;;;;77.15;61.17;;;19.50;99.90;;;;;;4870295;29;20079;-80
2021/07/13 05:52:46;;;;;;;76.80;60.30;;;19.50;99.90;;;;;;4869806;29;20487;-80
2021/07/13 05:55:12;;;;;;;74.60;60.30;;;19.50;99.90;;;;;;4869916;29;20053;-82
2021/07/13 05:57:39;;;;;;;64.32;55.13;;;19.50;99.90;;;;;;4871386;29;20040;-82
2021/07/13 06:00:08;;;;;;;71.93;57.47;;;19.50;99.90;;;;;;4867018;29;20504;-82
2021/07/13 06:02:34;;;;;;;64.65;54.33;;;19.50;99.90;;;;;;4905775;29;20040;-80
2021/07/13 06:05:00;;;;;;;68.13;56.13;;;19.60;99.90;;;;;;4868296;29;20278;-80
2021/07/13 06:07:29;;;;;;;71.10;59.47;;;19.60;99.90;;;;;;4870620;29;20468;-82
2021/07/13 06:09:56;;;;;;;66.90;56.33;;;19.60;99.90;;;;;;4885708;29;20044;-80
2021/07/13 06:12:22;;;;;;;69.68;55.08;;;19.60;99.90;;;;;;4859937;29;20072;-80
2021/07/13 06:14:49;;;;;;;77.18;59.88;;;19.60;99.90;;;;;;4881818;29;20066;-80
2021/07/13 06:17:15;;;;;;;80.07;58.20;;;19.60;99.90;;;;;;4855181;29;20510;-82
2021/07/13 06:19:41;;;;;;;72.65;56.63;;;19.70;99.90;;;;;;4887316;29;20127;-81
2021/07/13 06:22:07;;;;;;;71.25;54.28;;;19.60;99.90;;;;;;4904287;29;20171;-81
2021/07/13 06:24:33;;;;;;;62.25;48.90;;;19.60;99.90;;;;;;4859889;29;20491;-81
2021/07/13 06:26:59;;;;;;;71.60;54.38;;;19.60;99.90;;;;;;4887564;29;20146;-81
2021/07/13 06:29:25;;;;;;;67.07;50.80;;;19.70;99.90;;;;;;4872927;29;20033;-81
2021/07/13 06:31:52;;;;;;;65.78;50.55;;;19.60;99.90;;;;;;4874763;29;20138;-82
2021/07/13 06:34:18;;;;;;;65.57;49.83;;;19.60;99.90;;;;;;4875904;29;20306;-82
2021/07/13 06:36:47;;;;;;;62.38;49.50;;;19.70;99.90;;;;;;4888558;29;20068;-80
2021/07/13 06:39:14;;;;;;;73.50;52.38;;;19.70;99.90;;;;;;4861236;29;20064;-81
2021/07/13 06:41:40;;;;;;;68.65;51.70;;;19.80;99.90;;;;;;4875919;29;20032;-81
2021/07/13 06:44:40;;;;;;;;;;;;;;;;;;;;;
2021/07/13 06:51:50;;;;;;;63.78;48.28;;;19.80;99.90;;;;;;4835513;29;20054;-79
2021/07/13 06:54:26;;;;;;;66.65;48.65;;;19.70;99.90;;;;;;4877176;29;20377;-80
2021/07/13 06:56:52;;;;;;;59.78;46.13;;;19.80;99.90;;;;;;4883068;29;20107;-81
2021/07/13 06:59:18;;;;;;;55.92;43.97;;;19.80;99.90;;;;;;4871667;29;20115;-81
2021/07/13 07:01:44;;;;;;;57.00;46.25;;;19.90;99.90;;;;;;4871322;29;20495;-82
2021/07/13 07:04:10;;;;;;;59.20;45.67;;;19.90;99.90;;;;;;4872376;29;20051;-81
2021/07/13 07:06:36;;;;;;;63.58;45.60;;;19.90;99.90;;;;;;4854226;29;20127;-81
2021/07/13 07:09:03;;;;;;;48.67;39.00;;;19.90;99.90;;;;;;4853248;29;20495;-82
2021/07/13 07:11:29;;;;;;;55.67;44.25;;;19.90;99.90;;;;;;4889435;29;20043;-81
2021/07/13 07:13:55;;;;;;;53.53;43.95;;;19.90;99.90;;;;;;4887298;29;20055;-81
2021/07/13 07:16:21;;;;;;;52.30;43.03;;;20.00;99.90;;;;;;4883852;29;20389;-83
2021/07/13 07:18:47;;;;;;;51.38;43.30;;;20.00;99.90;;;;;;4871809;29;20052;-82
2021/07/13 07:21:13;;;;;;;49.17;41.75;;;20.00;99.90;;;;;;4903244;29;20059;-82
2021/07/13 07:23:42;;;;;;;49.05;42.08;;;20.00;99.90;;;;;;4870412;29;20350;-82
2021/07/13 07:26:29;;;;;;;47.65;42.03;;;20.00;99.90;;;;;;4886730;29;20375;-83
2021/07/13 07:28:55;;;;;;;56.97;45.05;;;20.00;99.90;;;;;;4872256;29;20354;-83
2021/07/13 07:31:21;;;;;;;51.33;42.80;;;20.00;99.90;;;;;;4902450;29;20520;-81
2021/07/13 07:33:48;;;;;;;44.70;39.70;;;20.10;99.90;;;;;;4853213;29;20075;-81
2021/07/13 07:36:27;;;;;;;46.40;41.28;;;20.00;99.90;;;;;;4886859;29;20556;-84
2021/07/13 07:38:54;;;;;;;49.08;42.05;;;20.10;99.90;;;;;;4873583;29;20048;-82
2021/07/13 07:41:20;;;;;;;43.88;38.40;;;20.10;99.90;;;;;;4885262;29;20130;-82
2021/07/13 07:44:05;;;;;;;38.50;34.40;;;20.10;99.90;;;;;;4904443;29;20052;-81
2021/07/13 07:46:42;;;;;;;45.83;39.22;;;20.10;99.90;;;;;;4894856;29;20040;-81
2021/07/13 08:04:25;;;;;;;39.03;35.13;;;20.40;99.90;;;;;;4845617;29;20336;-81
2021/07/13 08:19:05;;;;;;;39.25;35.42;;;20.50;99.90;;;;;;4788000;29;20050;-88
2021/07/13 08:23:07;;;;;;;;;;;;;;;;;;;;;
2021/07/13 08:30:17;;;;;;;38.13;34.53;;;20.60;99.90;;;;;;4789930;29;20394;-82
2021/07/13 08:32:43;;;;;;;37.70;34.28;;;20.60;99.90;;;;;;4826192;29;20118;-82
2021/07/13 08:35:12;;;;;;;37.20;33.70;;;20.70;99.90;;;;;;4827681;29;20061;-84
2021/07/13 08:37:39;;;;;;;39.35;35.50;;;20.70;99.90;;;;;;4843226;29;20046;-82
2021/07/13 08:40:12;;;;;;;39.25;35.40;;;20.70;99.90;;;;;;4828617;29;20349;-80
2021/07/13 08:45:33;;;;;;;34.65;31.38;;;20.70;99.90;;;;;;4902966;29;20052;-82
2021/07/13 08:47:59;;;;;;;34.17;30.95;;;20.90;99.90;;;;;;4904123;29;20048;-81
2021/07/13 08:50:27;;;;;;;35.53;32.00;;;20.90;99.90;;;;;;4887918;29;20075;-82
2021/07/13 08:53:17;;;;;;;36.15;32.55;;;21.00;99.90;;;;;;4856401;29;20063;-81
2021/07/13 08:55:43;;;;;;;34.05;30.63;;;21.00;99.90;;;;;;4882925;29;21275;-82
2021/07/13 08:58:14;;;;;;;34.58;31.10;;;20.90;99.90;;;;;;4855426;29;20052;-82
2021/07/13 09:00:40;;;;;;;33.47;29.92;;;21.00;99.90;;;;;;4885389;29;20322;-83
2021/07/13 09:03:14;;;;;;;32.85;29.75;;;21.10;99.90;;;;;;4871832;29;20047;-81
2021/07/13 09:05:42;;;;;;;33.35;30.13;;;21.10;99.90;;;;;;4886359;29;20052;-81
2021/07/13 09:08:16;;;;;;;31.98;28.83;;;21.10;99.90;;;;;;4887207;29;20047;-82
2021/07/13 09:11:11;;;;;;;33.55;30.45;;;21.20;99.90;;;;;;4885853;29;20103;-82
2021/07/13 09:13:49;;;;;;;33.25;29.80;;;21.20;99.90;;;;;;4885592;29;20097;-81
2021/07/13 09:16:23;;;;;;;32.65;29.30;;;21.20;99.90;;;;;;4896493;29;20095;-82
2021/07/13 09:18:56;;;;;;;31.15;28.17;;;21.30;99.90;;;;;;4887788;29;20729;-81
2021/07/13 09:21:34;;;;;;;32.03;28.95;;;21.30;99.90;;;;;;4853553;29;20419;-82
2021/07/13 09:24:20;;;;;;;31.75;28.63;;;21.30;99.90;;;;;;4871578;29;20059;-81
2021/07/13 09:27:00;;;;;;;35.42;32.22;;;21.40;99.90;;;;;;4899527;29;20515;-81
2021/07/13 09:29:34;;;;;;;37.25;33.63;;;21.40;99.90;;;;;;4885370;29;20056;-80
2021/07/13 09:32:32;;;;;;;39.38;35.38;;;21.50;99.90;;;;;;4899410;29;20487;-81
2021/07/13 09:35:03;;;;;;;36.88;33.17;;;21.50;99.90;;;;;;4883453;29;20080;-80
2021/07/13 09:37:35;;;;;;;40.25;36.03;;;21.50;99.90;;;;;;4867299;29;20063;-80
2021/07/13 09:40:06;;;;;;;38.45;34.50;;;21.60;99.90;;;;;;4899712;29;20040;-80
2021/07/13 09:42:46;;;;;;;36.22;32.65;;;21.50;99.90;;;;;;4903338;29;20064;-80
2021/07/13 09:45:28;;;;;;;37.25;33.72;;;21.50;99.90;;;;;;4871887;29;20158;-79
2021/07/13 09:48:01;;;;;;;35.65;32.35;;;21.60;99.90;;;;;;4870864;29;20170;-80
2021/07/13 09:50:34;;;;;;;38.35;34.67;;;21.60;99.90;;;;;;4888144;29;20100;-79
2021/07/13 09:53:02;;;;;;;36.08;32.53;;;21.50;99.90;;;;;;4897345;29;20303;-79
2021/07/13 09:55:28;;;;;;;35.15;31.92;;;21.50;99.90;;;;;;4890069;29;20321;-79
2021/07/13 09:58:15;;;;;;;35.53;32.05;;;21.50;99.90;;;;;;4901315;29;20142;-79
2021/07/13 10:00:43;;;;;;;34.03;30.92;;;21.50;99.90;;;;;;4908656;29;20831;-80
2021/07/13 10:03:14;;;;;;;38.92;35.22;;;21.50;99.90;;;;;;4875434;29;20044;-80
2021/07/13 10:05:42;;;;;;;41.25;37.38;;;21.50;99.90;;;;;;4870958;29;20056;-80
2021/07/13 10:08:08;;;;;;;40.95;36.83;;;21.40;99.90;;;;;;4890818;29;20048;-80
2021/07/13 10:10:38;;;;;;;44.45;39.88;;;21.40;99.90;;;;;;4869104;29;20048;-81
2021/07/13 10:13:04;;;;;;;;;;;21.40;99.90;;;;;;4891312;29;20047;-81
2021/07/13 10:15:34;;;;;;;36.35;32.88;;;21.30;99.90;;;;;;4890508;29;19974;-80
2021/07/13 10:18:01;;;;;;;40.95;36.95;;;21.30;99.90;;;;;;4886788;29;20044;-81
2021/07/13 10:20:29;;;;;;;40.72;36.63;;;21.30;99.90;;;;;;4873479;29;20074;-79
2021/07/13 10:22:55;;;;;;;39.47;35.70;;;21.20;99.90;;;;;;4873597;29;20040;-80
2021/07/13 10:25:37;;;;;;;41.63;37.38;;;21.30;99.90;;;;;;4886648;29;20099;-78
2021/07/13 10:28:04;;;;;;;42.42;38.28;;;21.30;99.90;;;;;;4885269;29;20407;-77
2021/07/13 10:30:30;;;;;;;41.67;37.58;;;21.30;99.90;;;;;;4873612;29;20374;-77
2021/07/13 10:32:57;;;;;;;41.53;37.33;;;21.40;99.90;;;;;;4887517;29;20044;-76
2021/07/13 10:35:28;;;;;;;43.85;39.42;;;21.40;99.90;;;;;;4888957;29;20040;-77
2021/07/13 10:37:56;;;;;;;42.53;38.42;;;21.50;99.90;;;;;;4886289;29;20055;-77
2021/07/13 10:40:25;;;;;;;42.55;38.17;;;21.50;99.90;;;;;;4886042;29;20350;-76
2021/07/13 10:42:56;;;;;;;44.70;40.00;;;21.50;99.90;;;;;;4902767;29;20162;-76
2021/07/13 10:45:44;;;;;;;44.80;40.10;;;21.50;99.90;;;;;;4886437;29;20051;-76
2021/07/13 10:48:20;;;;;;;45.97;41.38;;;21.50;99.90;;;;;;4872085;29;20746;-76
2021/07/13 10:51:03;;;;;;;45.25;40.80;;;21.60;99.90;;;;;;4899880;29;20048;-77
2021/07/13 10:53:38;;;;;;;45.15;40.85;;;21.60;99.90;;;;;;4881461;29;20052;-76
2021/07/13 10:56:05;;;;;;;44.47;40.15;;;21.60;99.90;;;;;;4902458;29;20047;-76
2021/07/13 10:58:35;;;;;;;46.00;41.42;;;21.70;99.90;;;;;;4883845;29;20317;-76
2021/07/13 11:01:09;;;;;;;42.60;38.65;;;21.70;99.90;;;;;;4902706;29;20051;-75
2021/07/13 11:03:42;;;;;;;44.92;40.47;;;21.70;99.90;;;;;;4904578;29;20044;-75
2021/07/13 11:06:14;;;;;;;42.83;38.63;;;21.70;99.90;;;;;;4885595;29;20078;-76
2021/07/13 11:08:47;;;;;;;51.03;45.60;;;21.70;99.90;;;;;;4888976;29;20047;-76
2021/07/13 11:11:16;;;;;;;46.47;42.03;;;21.70;99.90;;;;;;4898227;29;20048;-75
2021/07/13 11:13:52;;;;;;;48.03;42.85;;;21.70;99.90;;;;;;4866962;29;20420;-76
2021/07/13 11:16:34;;;;;;;39.67;35.88;;;21.70;99.90;;;;;;4882912;29;20127;-77
2021/07/13 11:19:02;;;;;;;42.22;37.97;;;21.80;99.90;;;;;;4906411;29;20040;-78
2021/07/13 11:21:37;;;;;;;39.00;35.38;;;21.70;99.90;;;;;;4886439;29;20486;-77
2021/07/13 11:24:03;;;;;;;44.70;40.17;;;21.70;99.90;;;;;;4907186;29;20091;-77
2021/07/13 11:26:30;;;;;;;37.92;34.15;;;21.70;99.90;;;;;;4888111;29;20068;-76
2021/07/13 11:29:01;;;;;;;36.70;33.42;;;21.70;99.90;;;;;;4867784;29;20059;-76
2021/07/13 11:31:37;;;;;;;38.95;35.05;;;21.70;99.90;;;;;;4903870;29;20047;-78
2021/07/13 11:34:11;;;;;;;33.38;30.08;;;21.70;99.90;;;;;;4883660;29;20158;-77
2021/07/13 11:36:40;;;;;;;41.13;36.80;;;21.60;99.90;;;;;;4869742;29;20459;-78
2021/07/13 11:39:12;;;;;;;38.63;34.60;;;21.60;99.90;;;;;;4897867;29;20048;-77
2021/07/13 11:41:41;;;;;;;38.05;34.35;;;21.60;99.90;;;;;;4900468;29;20044;-80
2021/07/13 11:44:12;;;;;;;40.42;36.35;;;21.50;99.90;;;;;;4889042;29;20040;-77
2021/07/13 11:46:43;;;;;;;40.63;36.35;;;21.50;99.90;;;;;;4901658;29;20051;-77
2021/07/13 11:49:20;;;;;;;40.85;36.67;;;21.50;99.90;;;;;;4901178;29;20074;-77
2021/07/13 11:51:57;;;;;;;40.15;35.90;;;21.50;99.90;;;;;;4878869;29;20875;-77
2021/07/13 11:54:29;;;;;;;40.92;36.63;;;21.50;99.90;;;;;;4877136;29;20070;-78
2021/07/13 11:56:59;;;;;;;41.63;37.53;;;21.50;99.90;;;;;;4908171;29;20040;-78
2021/07/13 11:59:30;;;;;;;39.40;35.60;;;21.50;99.90;;;;;;4872885;29;20393;-77
2021/07/13 12:02:07;;;;;;;40.45;36.13;;;21.50;99.90;;;;;;4887197;29;20458;-78
2021/07/13 12:04:38;;;;;;;38.13;34.45;;;21.50;99.90;;;;;;4862802;29;20410;-78
2021/07/13 12:07:05;;;;;;;39.33;35.42;;;21.50;99.90;;;;;;4904726;29;20054;-78
2021/07/13 12:09:36;;;;;;;38.03;34.28;;;21.40;99.90;;;;;;4891394;29;20052;-79
2021/07/13 12:12:07;;;;;;;34.92;31.60;;;21.40;99.90;;;;;;4906664;29;20076;-78
2021/07/13 12:14:34;;;;;;;36.28;32.72;;;21.40;99.90;;;;;;4882875;29;20150;-77
2021/07/13 12:17:01;;;;;;;37.72;34.05;;;21.40;99.90;;;;;;4854788;29;20475;-78
2021/07/13 12:19:29;;;;;;;38.78;34.88;;;21.50;99.90;;;;;;4864994;29;20150;-79
2021/07/13 12:21:59;;;;;;;39.47;35.65;;;21.50;99.90;;;;;;4880501;29;20119;-80
2021/07/13 12:24:35;;;;;;;;;;;21.40;99.90;;;;;;4910003;29;20036;-79
2021/07/13 12:27:05;;;;;;;39.03;35.13;;;21.40;99.90;;;;;;4860702;29;20338;-80
2021/07/13 12:29:43;;;;;;;36.13;32.47;;;21.40;99.90;;;;;;4892804;29;20044;-80
2021/07/13 12:32:22;;;;;;;33.57;30.13;;;21.40;99.90;;;;;;4890994;29;20052;-79
2021/07/13 12:34:51;;;;;;;32.90;29.67;;;21.30;99.90;;;;;;4873848;29;20349;-79
2021/07/13 12:37:21;;;;;;;35.10;31.30;;;21.30;99.90;;;;;;4906707;29;20514;-78
2021/07/13 12:39:49;;;;;;;32.15;29.02;;;21.30;99.90;;;;;;4887677;29;20055;-79
2021/07/13 12:42:39;;;;;;;33.50;30.10;;;21.20;99.90;;;;;;4905899;29;20052;-78
2021/07/13 12:45:20;;;;;;;33.03;29.67;;;21.10;99.90;;;;;;4888173;29;20051;-79
2021/07/13 12:47:48;;;;;;;37.25;30.38;;;21.00;99.90;;;;;;4907252;29;20123;-79
2021/07/13 12:50:18;;;;;;;32.60;29.08;;;21.00;99.90;;;;;;4870727;29;20056;-79
2021/07/13 12:52:47;;;;;;;34.22;30.30;;;20.90;99.90;;;;;;4904648;29;20055;-80
2021/07/13 12:55:18;;;;;;;41.92;33.53;;;21.00;99.90;;;;;;4888171;29;20040;-77
2021/07/13 12:57:49;;;;;;;36.25;31.60;;;20.90;99.90;;;;;;4904276;29;20068;-78
2021/07/13 13:00:26;;;;;;;44.65;34.88;;;20.90;99.90;;;;;;4885599;29;20450;-77
2021/07/13 13:03:05;;;;;;;43.13;34.13;;;20.90;99.90;;;;;;4874670;29;20123;-77
2021/07/13 13:05:38;;;;;;;34.40;27.77;;;20.90;99.90;;;;;;4901922;29;20107;-77
2021/07/13 13:08:06;;;;;;;30.58;27.17;;;20.90;99.90;;;;;;4888276;29;20106;-77
2021/07/13 13:10:36;;;;;;;34.75;29.85;;;21.00;99.90;;;;;;4881802;29;20036;-76
2021/07/13 13:13:02;;;;;;;31.20;27.88;;;21.10;99.90;;;;;;4884611;29;20427;-76
2021/07/13 13:15:29;;;;;;;32.13;27.38;;;21.10;99.90;;;;;;4883586;29;20135;-77
2021/07/13 13:17:56;;;;;;;28.25;25.25;;;21.10;99.90;;;;;;4900311;29;20055;-78
2021/07/13 13:20:24;;;;;;;29.23;25.58;;;21.10;99.90;;;;;;4900926;29;20067;-83